Time;durP1;ratioP1;P1;durP2;ratioP2;P2;SDS_P1;SDS_P2;PMS_P1;PMS_P2;Temp;Humidity;BMP_temperature;BMP_pressure;BME280_temperature;BME280_humidity;BME280_pressure;Samples;Min_cycle;Max_cycle;Signal;HPM_P1;HPM_P2
2022/12/19 00:04:37;;;;;;;37.08;23.35;;;;;;;;;;10314263;28;20479;-65
2022/12/19 00:09:36;;;;;;;31.00;17.42;;;;;;;;;;10320333;28;20073;-65
2022/12/19 00:14:35;;;;;;;29.27;17.88;;;;;;;;;;10302012;28;20076;-66
2022/12/19 00:19:33;;;;;;;35.55;21.20;;;;;;;;;;10317921;28;20072;-66
2022/12/19 00:24:32;;;;;;;29.17;17.42;;;;;;;;;;10320656;28;20122;-66
2022/12/19 00:29:30;;;;;;;41.00;21.60;;;;;;;;;;10320645;28;20075;-66
2022/12/19 00:34:32;;;;;;;31.88;17.92;;;;;;;;;;10319954;28;20778;-66
2022/12/19 00:39:32;;;;;;;29.02;17.42;;;;;;;;;;10318675;28;20080;-66
2022/12/19 00:44:30;;;;;;;31.48;17.77;;;;;;;;;;10296369;28;20532;-66
2022/12/19 00:49:29;;;;;;;35.63;18.48;;;;;;;;;;10281821;28;20545;-66
2022/12/19 00:54:30;;;;;;;31.85;19.80;;;;;;;;;;10261430;28;20073;-66
2022/12/19 00:59:30;;;;;;;30.65;18.17;;;;;;;;;;10281977;28;20068;-65
2022/12/19 01:04:28;;;;;;;32.60;19.80;;;;;;;;;;10283006;28;20520;-66
2022/12/19 01:09:31;;;;;;;31.20;18.38;;;;;;;;;;10283170;28;20073;-65
2022/12/19 01:14:29;;;;;;;32.08;18.60;;;;;;;;;;10281754;28;20568;-65
2022/12/19 01:19:27;;;;;;;31.33;17.92;;;;;;;;;;10278588;28;20069;-66
2022/12/19 01:24:26;;;;;;;32.90;19.17;;;;;;;;;;10277271;28;20080;-66
2022/12/19 01:29:25;;;;;;;30.65;17.90;;;;;;;;;;10278151;28;20084;-66
2022/12/19 01:34:24;;;;;;;27.40;15.10;;;;;;;;;;10292509;28;20434;-66
2022/12/19 01:39:22;;;;;;;33.65;19.25;;;;;;;;;;10272917;28;20073;-66
2022/12/19 01:44:25;;;;;;;29.88;17.95;;;;;;;;;;10273659;28;20076;-65
2022/12/19 01:49:27;;;;;;;31.63;17.92;;;;;;;;;;10274322;28;20560;-65
2022/12/19 01:54:29;;;;;;;32.70;18.35;;;;;;;;;;10310633;28;20076;-66
2022/12/19 01:59:31;;;;;;;31.85;20.35;;;;;;;;;;10289459;28;20087;-65
2022/12/19 02:04:30;;;;;;;31.95;20.00;;;;;;;;;;10311312;28;20171;-66
2022/12/19 02:09:30;;;;;;;33.75;19.88;;;;;;;;;;10309222;28;20079;-65
2022/12/19 02:14:29;;;;;;;34.22;19.52;;;;;;;;;;10308037;28;20067;-65
2022/12/19 02:19:38;;;;;;;33.47;20.73;;;;;;;;;;10286684;28;20091;-65
2022/12/19 02:24:55;;;;;;;34.72;19.13;;;;;;;;;;10284778;28;20079;-65
2022/12/19 02:30:09;;;;;;;34.92;22.77;;;;;;;;;;10273415;28;20475;-65
2022/12/19 02:35:17;;;;;;;32.13;18.58;;;;;;;;;;10289033;28;20076;-64
2022/12/19 02:40:17;;;;;;;33.13;19.38;;;;;;;;;;10289974;28;20079;-66
2022/12/19 02:45:19;;;;;;;31.52;19.75;;;;;;;;;;10302251;28;20470;-65
2022/12/19 02:50:35;;;;;;;32.50;20.67;;;;;;;;;;10274256;28;20089;-66
2022/12/19 02:55:36;;;;;;;30.73;18.92;;;;;;;;;;10267785;28;20073;-65
2022/12/19 03:00:40;;;;;;;32.45;18.63;;;;;;;;;;10269081;28;20465;-66
2022/12/19 03:05:45;;;;;;;35.90;19.65;;;;;;;;;;10266893;28;20115;-66
2022/12/19 03:10:43;;;;;;;;;;;;;;;;;;10267802;28;20064;-65
2022/12/19 03:15:41;;;;;;;29.58;17.88;;;;;;;;;;10264619;28;19957;-66
2022/12/19 03:20:44;;;;;;;29.08;17.77;;;;;;;;;;10266051;28;20049;-65
2022/12/19 03:25:44;;;;;;;32.65;19.55;;;;;;;;;;10265977;28;20073;-66
2022/12/19 03:30:44;;;;;;;31.58;18.88;;;;;;;;;;10269434;28;20072;-65
2022/12/19 03:35:45;;;;;;;29.92;18.77;;;;;;;;;;10268274;28;20068;-66
2022/12/19 03:40:44;;;;;;;30.25;18.52;;;;;;;;;;10266928;28;20067;-65
2022/12/19 03:45:44;;;;;;;35.20;19.63;;;;;;;;;;10265010;28;20080;-64
2022/12/19 03:50:46;;;;;;;34.05;20.00;;;;;;;;;;10299099;28;20102;-65
2022/12/19 03:55:47;;;;;;;35.88;21.83;;;;;;;;;;10306803;28;20163;-65
2022/12/19 04:00:47;;;;;;;35.08;18.48;;;;;;;;;;10308062;28;20068;-65
2022/12/19 04:05:47;;;;;;;35.72;20.48;;;;;;;;;;10306062;28;20178;-65
2022/12/19 04:10:49;;;;;;;47.15;21.60;;;;;;;;;;10306506;28;20067;-65
2022/12/19 04:15:50;;;;;;;38.92;21.45;;;;;;;;;;10306520;28;20060;-65
2022/12/19 04:20:52;;;;;;;33.00;20.13;;;;;;;;;;10306538;28;20076;-64
2022/12/19 04:25:52;;;;;;;35.08;20.88;;;;;;;;;;10306980;28;20064;-65
2022/12/19 04:30:51;;;;;;;36.58;21.90;;;;;;;;;;10305111;28;20056;-64
2022/12/19 04:35:51;;;;;;;27.02;17.33;;;;;;;;;;10305293;28;20088;-65
2022/12/19 04:40:49;;;;;;;33.65;18.60;;;;;;;;;;10306650;28;20079;-64
2022/12/19 04:45:47;;;;;;;31.92;19.10;;;;;;;;;;10304234;28;20079;-66
2022/12/19 04:50:53;;;;;;;31.80;19.33;;;;;;;;;;10307815;28;20080;-66
2022/12/19 04:55:59;;;;;;;29.58;18.40;;;;;;;;;;10311525;28;20515;-64
2022/12/19 05:01:00;;;;;;;32.10;18.63;;;;;;;;;;10311810;28;20072;-65
2022/12/19 05:06:06;;;;;;;30.98;17.42;;;;;;;;;;10313412;28;20523;-65
2022/12/19 05:11:06;;;;;;;30.60;16.83;;;;;;;;;;10311334;28;20072;-66
2022/12/19 05:16:06;;;;;;;31.92;18.33;;;;;;;;;;10311025;28;20068;-65
2022/12/19 05:21:08;;;;;;;31.27;18.65;;;;;;;;;;10310626;28;20052;-66
2022/12/19 05:26:06;;;;;;;34.85;19.50;;;;;;;;;;10313799;28;20072;-65
2022/12/19 05:31:08;;;;;;;28.10;19.83;;;;;;;;;;10311583;28;20072;-65
2022/12/19 05:36:11;;;;;;;28.83;18.17;;;;;;;;;;10313182;28;20072;-64
2022/12/19 05:41:10;;;;;;;27.85;19.15;;;;;;;;;;10314840;28;20075;-64
2022/12/19 05:46:08;;;;;;;29.83;17.17;;;;;;;;;;10308145;28;20587;-63
2022/12/19 05:51:07;;;;;;;30.13;17.63;;;;;;;;;;10307872;28;20084;-65
2022/12/19 05:56:08;;;;;;;28.75;18.83;;;;;;;;;;10309371;28;20151;-64
2022/12/19 06:01:08;;;;;;;28.40;17.40;;;;;;;;;;10307700;28;20095;-65
2022/12/19 06:06:09;;;;;;;30.13;18.83;;;;;;;;;;10308516;28;20072;-65
2022/12/19 06:11:09;;;;;;;28.30;18.77;;;;;;;;;;10307061;28;20080;-65
2022/12/19 06:16:09;;;;;;;25.63;17.10;;;;;;;;;;10308127;28;20076;-65
2022/12/19 06:21:10;;;;;;;27.02;18.63;;;;;;;;;;10309385;28;20084;-65
2022/12/19 06:26:11;;;;;;;35.03;23.80;;;;;;;;;;10288783;28;20083;-66
2022/12/19 06:31:15;;;;;;;40.03;27.40;;;;;;;;;;10308532;28;20061;-68
2022/12/19 06:36:19;;;;;;;31.95;18.75;;;;;;;;;;10300538;28;20060;-68
2022/12/19 06:46:34;;;;;;;28.88;18.20;;;;;;;;;;10307317;28;20104;-69
2022/12/19 06:51:33;;;;;;;26.27;16.75;;;;;;;;;;10308235;28;20082;-69
2022/12/19 06:56:35;;;;;;;28.95;18.85;;;;;;;;;;10308807;28;20508;-68
2022/12/19 07:01:39;;;;;;;21.23;15.55;;;;;;;;;;10283932;28;20075;-69
2022/12/19 07:06:38;;;;;;;21.63;15.60;;;;;;;;;;10304249;28;20072;-68
2022/12/19 07:11:43;;;;;;;25.63;16.02;;;;;;;;;;10311923;28;20079;-69
2022/12/19 07:16:41;;;;;;;29.92;16.38;;;;;;;;;;10313789;28;20074;-69
2022/12/19 07:21:40;;;;;;;22.20;15.30;;;;;;;;;;10293948;28;20163;-67
2022/12/19 07:26:38;;;;;;;23.58;16.13;;;;;;;;;;10313796;28;20083;-67
2022/12/19 07:31:38;;;;;;;25.52;15.13;;;;;;;;;;10311454;28;20059;-67
2022/12/19 07:36:36;;;;;;;20.75;14.13;;;;;;;;;;10311229;28;20068;-65
2022/12/19 07:41:36;;;;;;;26.23;15.95;;;;;;;;;;10313530;28;20068;-66
2022/12/19 07:46:34;;;;;;;27.65;17.45;;;;;;;;;;10304862;28;20079;-67
2022/12/19 07:51:34;;;;;;;27.88;17.42;;;;;;;;;;10291270;28;20080;-68
2022/12/19 07:56:32;;;;;;;24.45;16.27;;;;;;;;;;10307823;28;20075;-67
2022/12/19 08:01:32;;;;;;;23.10;15.70;;;;;;;;;;10306982;28;20072;-69
2022/12/19 08:06:30;;;;;;;43.42;26.63;;;;;;;;;;10310892;28;20075;-69
2022/12/19 08:11:36;;;;;;;27.60;16.27;;;;;;;;;;10308469;28;20060;-70
2022/12/19 08:16:35;;;;;;;23.40;15.73;;;;;;;;;;10306089;28;20477;-69
2022/12/19 08:21:53;;;;;;;24.10;16.52;;;;;;;;;;10301035;28;20842;-68
2022/12/19 08:26:52;;;;;;;25.20;14.95;;;;;;;;;;10289449;28;20509;-69
2022/12/19 08:31:51;;;;;;;23.15;15.07;;;;;;;;;;10290237;28;20059;-69
2022/12/19 08:36:49;;;;;;;28.23;17.55;;;;;;;;;;10298657;28;20060;-69
2022/12/19 08:41:47;;;;;;;27.88;16.98;;;;;;;;;;10312271;28;20068;-71
2022/12/19 08:46:47;;;;;;;24.35;15.25;;;;;;;;;;10304015;28;20060;-71
2022/12/19 08:51:47;;;;;;;29.27;16.70;;;;;;;;;;10305576;28;20060;-71
2022/12/19 08:56:45;;;;;;;34.53;20.38;;;;;;;;;;10298691;28;20111;-70
2022/12/19 09:01:44;;;;;;;34.65;20.63;;;;;;;;;;10318184;28;20087;-71
2022/12/19 09:06:44;;;;;;;35.00;19.05;;;;;;;;;;10318818;28;20091;-72
2022/12/19 09:11:43;;;;;;;23.33;16.10;;;;;;;;;;10318254;28;20727;-72
2022/12/19 09:16:45;;;;;;;25.70;16.15;;;;;;;;;;10316954;28;20064;-72
2022/12/19 09:21:45;;;;;;;27.75;20.90;;;;;;;;;;10315906;28;20474;-72
2022/12/19 09:26:44;;;;;;;29.92;18.75;;;;;;;;;;10317960;28;20079;-73
2022/12/19 09:31:42;;;;;;;27.27;17.20;;;;;;;;;;10318587;28;20076;-73
2022/12/19 09:36:41;;;;;;;28.42;17.10;;;;;;;;;;10294678;28;20215;-73
2022/12/19 09:41:58;;;;;;;22.95;17.95;;;;;;;;;;10317216;28;20459;-72
2022/12/19 09:46:57;;;;;;;26.88;16.88;;;;;;;;;;10316714;28;20475;-72
2022/12/19 09:51:59;;;;;;;26.42;17.17;;;;;;;;;;10317269;28;20049;-72
2022/12/19 09:57:01;;;;;;;23.45;15.23;;;;;;;;;;10317031;28;20071;-70
2022/12/19 10:02:04;;;;;;;24.85;16.10;;;;;;;;;;10313900;28;20076;-71
2022/12/19 10:07:03;;;;;;;40.40;23.97;;;;;;;;;;10310436;28;20072;-71
2022/12/19 10:12:31;;;;;;;28.00;17.75;;;;;;;;;;10319982;28;20048;-71
2022/12/19 10:17:56;;;;;;;40.20;21.05;;;;;;;;;;10308531;28;20055;-70
2022/12/19 10:23:00;;;;;;;23.52;16.35;;;;;;;;;;10315381;28;20071;-68
2022/12/19 10:28:04;;;;;;;30.42;19.13;;;;;;;;;;10314058;28;20072;-67
2022/12/19 10:33:06;;;;;;;22.27;15.82;;;;;;;;;;10315272;28;20450;-70
2022/12/19 10:38:17;;;;;;;28.08;16.83;;;;;;;;;;10314694;28;20095;-69
2022/12/19 10:43:23;;;;;;;23.65;16.42;;;;;;;;;;10311299;28;20079;-72
2022/12/19 10:48:31;;;;;;;59.30;40.63;;;;;;;;;;10315286;28;20076;-70
2022/12/19 10:53:30;;;;;;;31.35;23.08;;;;;;;;;;10312389;28;20596;-68
2022/12/19 10:58:34;;;;;;;36.80;24.30;;;;;;;;;;10311259;28;20064;-68
2022/12/19 11:03:32;;;;;;;57.45;29.85;;;;;;;;;;10288900;28;20087;-69
2022/12/19 11:08:32;;;;;;;29.25;17.38;;;;;;;;;;10310169;28;20467;-70
2022/12/19 11:13:42;;;;;;;29.55;18.95;;;;;;;;;;10310815;28;20463;-68
2022/12/19 11:19:01;;;;;;;27.48;19.15;;;;;;;;;;10311756;28;20079;-70
2022/12/19 11:24:22;;;;;;;31.40;18.65;;;;;;;;;;10311635;28;20083;-69
2022/12/19 11:29:46;;;;;;;45.53;25.38;;;;;;;;;;10309886;28;20083;-69
2022/12/19 11:35:06;;;;;;;26.23;18.65;;;;;;;;;;10309847;28;20071;-68
2022/12/19 11:40:10;;;;;;;44.97;27.67;;;;;;;;;;10309626;28;20064;-68
2022/12/19 11:45:14;;;;;;;41.78;29.35;;;;;;;;;;10312276;28;20067;-68
2022/12/19 11:50:15;;;;;;;40.35;24.65;;;;;;;;;;10288995;28;20076;-68
2022/12/19 11:55:17;;;;;;;34.83;21.17;;;;;;;;;;10310364;28;20068;-69
2022/12/19 12:00:20;;;;;;;35.72;20.92;;;;;;;;;;10310506;28;20529;-68
2022/12/19 12:05:34;;;;;;;42.92;31.33;;;;;;;;;;10310957;28;20075;-69
2022/12/19 12:10:33;;;;;;;34.33;22.27;;;;;;;;;;10308831;28;20080;-69
2022/12/19 12:15:58;;;;;;;30.67;21.90;;;;;;;;;;10310029;28;20083;-69
2022/12/19 12:21:22;;;;;;;40.38;21.48;;;;;;;;;;10312084;28;20075;-69
2022/12/19 12:26:44;;;;;;;28.92;18.98;;;;;;;;;;10306948;28;20071;-69
2022/12/19 12:32:11;;;;;;;29.92;19.17;;;;;;;;;;10309440;28;20079;-69
2022/12/19 12:37:29;;;;;;;;;;;;;;;;;;10309498;28;20087;-69
2022/12/19 12:42:53;;;;;;;33.97;22.73;;;;;;;;;;10308266;28;20019;-69
2022/12/19 12:47:53;;;;;;;32.50;23.38;;;;;;;;;;10309719;28;20088;-69
2022/12/19 12:52:53;;;;;;;35.17;24.70;;;;;;;;;;10311061;28;20068;-69
2022/12/19 12:57:51;;;;;;;28.35;18.85;;;;;;;;;;10308452;28;20072;-69
2022/12/19 13:02:52;;;;;;;29.73;19.73;;;;;;;;;;10310873;28;20074;-69
2022/12/19 13:07:52;;;;;;;33.70;22.02;;;;;;;;;;10307573;28;20080;-69
2022/12/19 13:13:00;;;;;;;35.40;21.88;;;;;;;;;;10313374;28;20083;-69
2022/12/19 13:18:08;;;;;;;32.08;20.15;;;;;;;;;;10316463;28;20068;-69
2022/12/19 13:23:20;;;;;;;45.13;25.10;;;;;;;;;;10317966;28;20575;-68
2022/12/19 13:28:37;;;;;;;30.42;19.42;;;;;;;;;;10314547;28;20076;-69
2022/12/19 13:33:44;;;;;;;25.80;17.30;;;;;;;;;;10296462;28;20040;-69
2022/12/19 13:38:47;;;;;;;29.08;20.02;;;;;;;;;;10315172;28;20091;-70
2022/12/19 13:44:05;;;;;;;30.52;20.35;;;;;;;;;;10314898;28;20107;-69
2022/12/19 13:49:05;;;;;;;29.17;19.98;;;;;;;;;;10313003;28;20084;-68
2022/12/19 13:54:18;;;;;;;28.25;19.92;;;;;;;;;;10313448;28;20060;-68
2022/12/19 13:59:16;;;;;;;38.88;22.60;;;;;;;;;;10312602;28;20489;-68
2022/12/19 14:04:23;;;;;;;28.27;19.73;;;;;;;;;;10293871;28;20080;-69
2022/12/19 14:09:27;;;;;;;35.90;22.00;;;;;;;;;;10315368;28;20124;-69
2022/12/19 14:20:16;;;;;;;31.73;20.30;;;;;;;;;;10313460;28;20083;-70
2022/12/19 14:25:39;;;;;;;32.08;19.10;;;;;;;;;;10313268;28;20075;-69
2022/12/19 14:30:59;;;;;;;29.90;19.63;;;;;;;;;;10314148;28;20079;-67
2022/12/19 14:35:57;;;;;;;33.13;19.42;;;;;;;;;;10313556;28;20041;-68
2022/12/19 14:43:37;;;;;;;28.55;19.30;;;;;;;;;;10313036;28;20071;-70
2022/12/19 14:46:37;;;;;;;33.65;20.48;;;;;;;;;;10310829;28;20417;-69
2022/12/19 14:51:55;;;;;;;47.78;24.08;;;;;;;;;;10312834;28;20064;-69
2022/12/19 14:57:19;;;;;;;34.45;23.88;;;;;;;;;;10313120;28;20075;-69
2022/12/19 15:02:38;;;;;;;41.35;27.38;;;;;;;;;;10308067;28;20068;-74
2022/12/19 15:07:41;;;;;;;36.47;25.08;;;;;;;;;;10311153;28;20072;-68
2022/12/19 15:18:25;;;;;;;49.70;31.45;;;;;;;;;;10312144;28;20524;-69
2022/12/19 15:23:24;;;;;;;43.95;25.30;;;;;;;;;;10310453;28;20498;-69
2022/12/19 15:28:26;;;;;;;46.22;28.60;;;;;;;;;;10313097;28;20099;-69
2022/12/19 15:33:24;;;;;;;41.67;23.98;;;;;;;;;;10311664;28;20037;-67
2022/12/19 15:38:22;;;;;;;42.30;26.27;;;;;;;;;;10313754;28;20068;-69
2022/12/19 15:43:22;;;;;;;44.38;29.15;;;;;;;;;;10314337;28;20082;-69
2022/12/19 15:48:44;;;;;;;40.35;26.20;;;;;;;;;;10294882;28;20195;-69
2022/12/19 15:53:42;;;;;;;47.97;28.52;;;;;;;;;;10312293;28;20060;-69
2022/12/19 15:58:40;;;;;;;31.10;23.30;;;;;;;;;;10310035;28;20056;-66
2022/12/19 16:03:39;;;;;;;41.53;23.63;;;;;;;;;;10289400;28;20053;-66
2022/12/19 16:08:39;;;;;;;32.92;22.92;;;;;;;;;;10311145;28;20068;-64
2022/12/19 16:13:37;;;;;;;34.13;20.77;;;;;;;;;;10311141;28;20099;-65
2022/12/19 16:18:36;;;;;;;33.35;22.63;;;;;;;;;;10311436;28;20087;-62
2022/12/19 16:23:34;;;;;;;32.53;23.63;;;;;;;;;;10312216;28;20068;-63
2022/12/19 16:28:34;;;;;;;35.75;25.13;;;;;;;;;;10311166;28;20072;-66
2022/12/19 16:33:32;;;;;;;44.88;28.08;;;;;;;;;;10313361;28;20507;-71
2022/12/19 16:38:31;;;;;;;48.35;30.00;;;;;;;;;;10298566;28;20118;-67
2022/12/19 16:43:31;;;;;;;52.95;35.22;;;;;;;;;;10314892;28;20060;-69
2022/12/19 16:48:34;;;;;;;38.58;26.83;;;;;;;;;;10322008;28;20839;-69
2022/12/19 16:53:32;;;;;;;44.80;27.02;;;;;;;;;;10319461;28;20072;-69
2022/12/19 16:58:34;;;;;;;40.63;25.67;;;;;;;;;;10319668;28;20049;-71
2022/12/19 17:03:43;;;;;;;31.95;22.33;;;;;;;;;;10319401;28;20079;-70
2022/12/19 17:08:43;;;;;;;29.73;22.17;;;;;;;;;;10300804;28;20079;-69
2022/12/19 17:13:42;;;;;;;41.40;26.20;;;;;;;;;;10318626;28;20083;-70
2022/12/19 17:18:42;;;;;;;55.35;34.08;;;;;;;;;;10315997;28;20064;-70
2022/12/19 17:23:41;;;;;;;48.45;29.85;;;;;;;;;;10318484;28;20068;-69
2022/12/19 17:28:39;;;;;;;49.50;29.63;;;;;;;;;;10316699;28;20080;-69
2022/12/19 17:33:40;;;;;;;43.63;27.92;;;;;;;;;;10317880;28;20060;-70
2022/12/19 17:38:52;;;;;;;38.13;25.95;;;;;;;;;;10313185;28;20076;-71
2022/12/19 17:43:56;;;;;;;43.08;28.23;;;;;;;;;;10297946;28;20075;-70
2022/12/19 17:48:55;;;;;;;43.05;28.48;;;;;;;;;;10296972;28;20091;-70
2022/12/19 17:53:54;;;;;;;47.83;30.20;;;;;;;;;;10314781;28;20540;-70
2022/12/19 17:58:54;;;;;;;56.20;35.05;;;;;;;;;;10314424;28;20056;-70
2022/12/19 18:03:54;;;;;;;48.08;30.25;;;;;;;;;;10313890;28;20056;-69
2022/12/19 18:08:53;;;;;;;48.78;29.58;;;;;;;;;;10315301;28;20075;-70
2022/12/19 18:13:53;;;;;;;60.58;37.20;;;;;;;;;;10314421;28;20068;-70
2022/12/19 18:18:52;;;;;;;51.08;34.10;;;;;;;;;;10314739;28;20063;-69
2022/12/19 18:23:50;;;;;;;48.65;31.13;;;;;;;;;;10311726;28;20063;-70
2022/12/19 18:28:48;;;;;;;45.15;28.73;;;;;;;;;;10313873;28;20067;-69
2022/12/19 18:33:52;;;;;;;47.88;29.80;;;;;;;;;;10314301;28;20056;-70
2022/12/19 18:38:51;;;;;;;44.17;24.15;;;;;;;;;;10288201;28;20071;-69
2022/12/19 18:43:52;;;;;;;47.47;25.60;;;;;;;;;;10310974;28;20072;-69
2022/12/19 18:48:54;;;;;;;55.00;39.05;;;;;;;;;;10313170;28;20500;-69
2022/12/19 18:53:55;;;;;;;58.97;37.08;;;;;;;;;;10312503;28;20064;-68
2022/12/19 18:58:53;;;;;;;76.65;47.45;;;;;;;;;;10311460;28;20480;-69
2022/12/19 19:03:54;;;;;;;50.55;30.08;;;;;;;;;;10308222;28;20461;-68
2022/12/19 19:08:55;;;;;;;41.50;26.85;;;;;;;;;;10294821;28;20091;-69
2022/12/19 19:14:12;;;;;;;55.38;33.67;;;;;;;;;;10312438;28;20080;-70
2022/12/19 19:19:14;;;;;;;51.42;31.67;;;;;;;;;;10303391;28;20082;-70
2022/12/19 19:24:14;;;;;;;47.10;29.58;;;;;;;;;;10302486;28;20467;-68
2022/12/19 19:29:13;;;;;;;65.55;39.03;;;;;;;;;;10299279;28;20067;-69
2022/12/19 19:34:16;;;;;;;43.95;28.55;;;;;;;;;;10288690;28;20068;-70
2022/12/19 19:39:15;;;;;;;34.08;22.27;;;;;;;;;;10287121;28;20529;-68
2022/12/19 19:44:13;;;;;;;46.65;31.13;;;;;;;;;;10290557;28;20509;-69
2022/12/19 19:49:11;;;;;;;43.67;26.10;;;;;;;;;;10290935;28;20096;-68
2022/12/19 19:54:12;;;;;;;36.42;24.73;;;;;;;;;;10303552;28;20075;-69
2022/12/19 19:59:12;;;;;;;27.83;19.90;;;;;;;;;;10309379;28;20075;-69
2022/12/19 20:04:10;;;;;;;50.30;29.52;;;;;;;;;;10302439;28;20458;-69
2022/12/19 20:09:13;;;;;;;42.15;28.58;;;;;;;;;;10306844;28;20430;-68
2022/12/19 20:14:11;;;;;;;39.38;24.63;;;;;;;;;;10308636;28;20532;-68
2022/12/19 20:19:09;;;;;;;46.72;27.30;;;;;;;;;;10311889;28;20068;-69
2022/12/19 20:24:08;;;;;;;53.90;31.45;;;;;;;;;;10318793;28;20063;-69
2022/12/19 20:29:10;;;;;;;78.40;47.95;;;;;;;;;;10317699;28;20525;-69
2022/12/19 20:34:08;;;;;;;43.53;27.17;;;;;;;;;;10313720;28;20060;-70
2022/12/19 20:39:06;;;;;;;38.15;24.50;;;;;;;;;;10298291;28;20072;-70
2022/12/19 20:44:06;;;;;;;39.08;24.02;;;;;;;;;;10318691;28;20064;-69
2022/12/19 20:49:06;;;;;;;33.78;22.13;;;;;;;;;;10316200;28;20084;-69
2022/12/19 20:54:07;;;;;;;38.42;23.13;;;;;;;;;;10313659;28;20063;-69
2022/12/19 20:59:05;;;;;;;42.22;25.88;;;;;;;;;;10300840;28;20490;-69
2022/12/19 21:04:04;;;;;;;45.67;29.67;;;;;;;;;;10318815;28;20080;-72
2022/12/19 21:09:10;;;;;;;62.80;36.40;;;;;;;;;;10327491;28;20059;-72
2022/12/19 21:14:11;;;;;;;42.70;26.48;;;;;;;;;;10322592;28;20051;-72
2022/12/19 21:19:12;;;;;;;40.80;23.83;;;;;;;;;;10298970;28;20068;-72
2022/12/19 21:24:13;;;;;;;43.60;27.00;;;;;;;;;;10299045;28;20080;-72
2022/12/19 21:29:13;;;;;;;36.13;22.30;;;;;;;;;;10298532;28;20098;-72
2022/12/19 21:34:12;;;;;;;34.80;23.35;;;;;;;;;;10315913;28;20044;-72
2022/12/19 21:39:11;;;;;;;36.35;22.75;;;;;;;;;;10294932;28;20095;-73
2022/12/19 21:44:12;;;;;;;39.15;22.75;;;;;;;;;;10317825;28;20084;-72
2022/12/19 21:49:10;;;;;;;36.83;24.80;;;;;;;;;;10315812;28;20247;-72
2022/12/19 21:54:12;;;;;;;34.38;22.50;;;;;;;;;;10317704;28;20060;-72
2022/12/19 21:59:12;;;;;;;38.22;24.52;;;;;;;;;;10317132;28;20075;-71
2022/12/19 22:04:12;;;;;;;39.97;23.23;;;;;;;;;;10290605;28;20080;-72
2022/12/19 22:09:14;;;;;;;36.90;22.42;;;;;;;;;;10314893;28;20076;-72
2022/12/19 22:14:14;;;;;;;46.50;26.70;;;;;;;;;;10315629;28;20479;-71
2022/12/19 22:19:13;;;;;;;39.08;23.48;;;;;;;;;;10313021;28;20496;-72
2022/12/19 22:24:14;;;;;;;37.83;24.25;;;;;;;;;;10311751;28;20072;-72
2022/12/19 22:29:15;;;;;;;46.60;27.83;;;;;;;;;;10311242;28;20080;-73
2022/12/19 22:34:17;;;;;;;43.30;26.67;;;;;;;;;;10312514;28;20514;-73
2022/12/19 22:39:16;;;;;;;43.42;27.58;;;;;;;;;;10314954;28;20045;-73
2022/12/19 22:44:17;;;;;;;38.20;24.83;;;;;;;;;;10313862;28;20088;-73
2022/12/19 22:49:16;;;;;;;44.63;28.58;;;;;;;;;;10313724;28;20088;-73
2022/12/19 22:54:14;;;;;;;43.65;26.92;;;;;;;;;;10312988;28;20834;-72
2022/12/19 22:59:12;;;;;;;49.90;31.70;;;;;;;;;;10315689;28;20505;-72
2022/12/19 23:04:13;;;;;;;37.95;22.35;;;;;;;;;;10311430;28;20065;-73
2022/12/19 23:09:14;;;;;;;36.33;23.40;;;;;;;;;;10296575;28;20083;-72
2022/12/19 23:14:13;;;;;;;40.92;25.23;;;;;;;;;;10315444;28;20076;-73
2022/12/19 23:19:13;;;;;;;37.78;23.20;;;;;;;;;;10314351;28;20478;-72
2022/12/19 23:24:12;;;;;;;35.08;23.13;;;;;;;;;;10313445;28;20079;-72
2022/12/19 23:29:11;;;;;;;37.88;22.58;;;;;;;;;;10313080;28;20083;-73
2022/12/19 23:34:09;;;;;;;34.65;21.23;;;;;;;;;;10293115;28;20079;-72
2022/12/19 23:39:09;;;;;;;31.55;19.58;;;;;;;;;;10313088;28;20076;-73
2022/12/19 23:44:08;;;;;;;42.08;30.38;;;;;;;;;;10310799;28;20065;-71
2022/12/19 23:49:06;;;;;;;30.50;19.15;;;;;;;;;;10294444;28;20084;-72
2022/12/19 23:54:04;;;;;;;29.30;18.55;;;;;;;;;;10312730;28;20556;-72
2022/12/19 23:59:04;;;;;;;28.65;20.92;;;;;;;;;;10312405;28;20064;-71
